createdAt,value
2018-01-17T00:01:10.240Z,7.90
2018-01-17T00:03:37.895Z,8.93
2018-01-17T00:06:05.387Z,9.40
2018-01-17T00:08:32.782Z,8.05
2018-01-17T00:11:00.211Z,9.03
2018-01-17T00:13:27.613Z,8.70
2018-01-17T00:15:55.138Z,10.30
2018-01-17T00:18:22.688Z,8.37
2018-01-17T00:20:50.091Z,9.80
2018-01-17T00:23:17.547Z,8.93
2018-01-17T00:25:44.978Z,9.03
2018-01-17T00:28:12.334Z,7.75
2018-01-17T00:30:39.830Z,8.63
2018-01-17T00:33:07.422Z,8.20
2018-01-17T00:35:34.891Z,8.95
2018-01-17T00:38:02.355Z,8.83
2018-01-17T00:40:29.827Z,8.63
2018-01-17T00:42:57.251Z,8.03
2018-01-17T00:45:24.801Z,7.35
2018-01-17T00:47:52.226Z,8.50
2018-01-17T00:50:19.608Z,7.80
2018-01-17T00:52:46.979Z,7.87
2018-01-17T00:55:15.118Z,7.37
2018-01-17T00:57:42.537Z,7.55
2018-01-17T01:00:09.986Z,7.80
2018-01-17T01:02:37.524Z,7.70
2018-01-17T01:05:05.270Z,7.95
2018-01-17T01:07:32.735Z,7.87
2018-01-17T01:10:00.139Z,6.80
2018-01-17T01:12:27.535Z,7.67
2018-01-17T01:14:54.980Z,8.10
2018-01-17T01:17:22.361Z,6.70
2018-01-17T01:19:49.878Z,6.20
2018-01-17T01:22:18.175Z,8.45
2018-01-17T01:24:45.735Z,6.33
2018-01-17T01:27:13.291Z,7.70
2018-01-17T01:29:40.773Z,7.10
2018-01-17T01:32:08.140Z,6.85
2018-01-17T01:34:35.539Z,6.75
2018-01-17T01:37:02.991Z,7.73
2018-01-17T01:39:30.367Z,6.70
2018-01-17T01:41:57.728Z,7.43
2018-01-17T01:44:25.179Z,6.55
2018-01-17T01:46:52.571Z,7.20
2018-01-17T01:49:20.015Z,7.20
2018-01-17T01:51:47.922Z,6.75
2018-01-17T01:54:15.318Z,5.70
2018-01-17T01:56:42.747Z,7.25
2018-01-17T01:59:10.191Z,5.70
2018-01-17T02:01:37.568Z,7.17
2018-01-17T02:04:05.018Z,5.70
2018-01-17T02:06:32.385Z,5.47
2018-01-17T02:08:59.750Z,5.67
2018-01-17T02:11:27.150Z,5.23
2018-01-17T02:13:54.576Z,5.63
2018-01-17T02:16:21.981Z,5.30
2018-01-17T02:18:49.345Z,4.60
2018-01-17T02:21:16.746Z,5.65
2018-01-17T02:23:44.654Z,5.07
2018-01-17T02:26:12.478Z,4.50
2018-01-17T02:28:39.842Z,4.63
2018-01-17T02:31:07.263Z,4.40
2018-01-17T02:33:34.635Z,4.97
2018-01-17T02:36:02.112Z,5.00
2018-01-17T02:38:29.642Z,4.65
2018-01-17T02:40:57.349Z,4.70
2018-01-17T02:43:24.839Z,4.55
2018-01-17T02:45:52.225Z,4.90
2018-01-17T02:48:19.581Z,4.55
2018-01-17T02:50:47.035Z,4.70
2018-01-17T02:53:14.637Z,4.60
2018-01-17T02:55:42.116Z,4.10
2018-01-17T02:58:09.979Z,4.27
2018-01-17T03:00:37.327Z,3.93
2018-01-17T03:03:04.725Z,4.15
2018-01-17T03:05:32.130Z,3.90
2018-01-17T03:07:59.956Z,4.30
2018-01-17T03:10:27.869Z,3.65
2018-01-17T03:12:55.301Z,4.53
2018-01-17T03:15:22.739Z,4.55
2018-01-17T03:17:50.204Z,3.97
2018-01-17T03:20:17.658Z,4.60
2018-01-17T03:22:45.317Z,3.83
2018-01-17T03:25:13.285Z,4.65
2018-01-17T03:27:42.218Z,4.05
2018-01-17T03:30:09.988Z,3.43
2018-01-17T03:32:37.379Z,3.60
2018-01-17T03:35:04.775Z,3.40
2018-01-17T03:37:32.147Z,3.73
2018-01-17T03:39:59.581Z,2.85
2018-01-17T03:42:26.955Z,3.00
2018-01-17T03:44:54.337Z,3.17
2018-01-17T03:47:21.774Z,3.60
2018-01-17T03:49:49.186Z,3.60
2018-01-17T03:52:16.628Z,3.87
2018-01-17T03:54:44.148Z,3.73
2018-01-17T03:57:12.490Z,4.53
2018-01-17T03:59:39.864Z,3.70
2018-01-17T04:02:07.306Z,3.40
2018-01-17T04:04:34.674Z,3.55
2018-01-17T04:07:02.188Z,3.50
2018-01-17T04:09:29.604Z,3.97
2018-01-17T04:11:57.174Z,4.10
2018-01-17T04:14:24.765Z,3.80
2018-01-17T04:16:52.260Z,3.30
2018-01-17T04:19:19.862Z,3.40
2018-01-17T04:21:47.344Z,2.75
2018-01-17T04:24:14.731Z,3.80
2018-01-17T04:26:42.178Z,2.60
2018-01-17T04:29:09.545Z,3.10
2018-01-17T04:31:37.031Z,2.80
2018-01-17T04:34:04.458Z,3.10
2018-01-17T04:36:31.894Z,3.55
2018-01-17T04:38:59.283Z,15.25
2018-01-17T04:41:26.749Z,3.45
2018-01-17T04:43:54.143Z,3.50
2018-01-17T04:46:21.642Z,3.93
2018-01-17T04:48:49.029Z,4.20
2018-01-17T04:51:16.914Z,3.90
2018-01-17T04:53:44.409Z,4.20
2018-01-17T04:56:11.918Z,5.60
2018-01-17T04:58:39.437Z,5.00
2018-01-17T05:01:06.868Z,9.13
2018-01-17T05:03:34.287Z,4.67
2018-01-17T05:06:01.942Z,5.57
2018-01-17T05:08:29.576Z,5.30
2018-01-17T05:10:57.088Z,5.40
2018-01-17T05:13:24.563Z,5.70
2018-01-17T05:15:51.976Z,5.23
2018-01-17T05:18:19.441Z,6.60
2018-01-17T05:20:46.837Z,7.35
2018-01-17T05:23:15.833Z,6.30
2018-01-17T05:25:43.413Z,5.17
2018-01-17T05:28:10.821Z,5.37
2018-01-17T05:30:38.411Z,4.60
2018-01-17T05:33:05.852Z,4.43
2018-01-17T05:35:33.429Z,4.37
2018-01-17T05:38:00.849Z,4.73
2018-01-17T05:40:28.403Z,4.70
2018-01-17T05:42:55.821Z,4.30
2018-01-17T05:45:23.229Z,4.53
2018-01-17T05:47:50.680Z,4.47
2018-01-17T05:50:18.433Z,5.20
2018-01-17T05:52:45.933Z,4.30
2018-01-17T05:55:13.366Z,4.00
2018-01-17T05:57:41.058Z,6.27
2018-01-17T06:00:08.534Z,5.90
2018-01-17T06:02:36.062Z,6.10
2018-01-17T06:05:03.613Z,4.70
2018-01-17T06:07:31.025Z,6.27
2018-01-17T06:09:58.481Z,4.85
2018-01-17T06:12:26.028Z,5.20
2018-01-17T06:14:53.439Z,5.50
2018-01-17T06:17:20.876Z,6.30
2018-01-17T06:19:48.331Z,8.60
2018-01-17T06:22:15.789Z,6.35
2018-01-17T06:24:43.356Z,6.37
2018-01-17T06:27:11.150Z,6.33
2018-01-17T06:29:38.583Z,5.65
2018-01-17T06:32:06.667Z,6.30
2018-01-17T06:34:34.246Z,6.27
2018-01-17T06:37:01.799Z,5.65
2018-01-17T06:39:29.343Z,4.93
2018-01-17T06:41:56.840Z,4.75
2018-01-17T06:44:24.218Z,4.67
2018-01-17T06:46:51.705Z,5.40
2018-01-17T06:49:19.115Z,4.57
2018-01-17T06:51:46.675Z,5.40
2018-01-17T06:54:14.380Z,4.83
2018-01-17T06:56:42.053Z,5.73
2018-01-17T06:59:09.646Z,6.30
2018-01-17T07:01:39.406Z,6.80
2018-01-17T07:04:07.043Z,6.20
2018-01-17T07:06:34.493Z,6.63
2018-01-17T07:09:02.827Z,7.40
2018-01-17T07:11:30.363Z,7.07
2018-01-17T07:13:57.874Z,6.67
2018-01-17T07:16:25.862Z,6.27
2018-01-17T07:18:53.348Z,6.60
2018-01-17T07:21:21.072Z,8.10
2018-01-17T07:23:48.610Z,5.77
2018-01-17T07:26:16.093Z,5.30
2018-01-17T07:28:43.854Z,4.93
2018-01-17T07:31:11.410Z,5.40
2018-01-17T07:33:39.044Z,5.07
2018-01-17T07:36:08.543Z,5.10
2018-01-17T07:38:39.414Z,6.50
2018-01-17T07:41:06.994Z,5.93
2018-01-17T07:43:35.529Z,5.37
2018-01-17T07:46:03.522Z,4.93
2018-01-17T07:48:34.214Z,6.73
2018-01-17T07:51:01.892Z,5.20
2018-01-17T07:53:34.395Z,5.30
2018-01-17T07:56:02.040Z,5.90
2018-01-17T07:58:30.174Z,6.43
2018-01-17T08:00:58.374Z,5.20
2018-01-17T08:03:26.467Z,6.67
2018-01-17T08:05:54.220Z,4.90
2018-01-17T08:08:25.747Z,4.60
2018-01-17T08:10:55.022Z,5.47
2018-01-17T08:13:23.179Z,5.27
2018-01-17T08:15:50.931Z,4.73
2018-01-17T08:18:18.754Z,5.20
2018-01-17T08:20:46.346Z,5.05
2018-01-17T08:23:14.072Z,4.47
2018-01-17T08:25:41.672Z,5.43
2018-01-17T08:28:10.586Z,4.57
2018-01-17T08:30:38.152Z,4.77
2018-01-17T08:33:06.723Z,4.30
2018-01-17T08:35:36.512Z,4.43
2018-01-17T08:38:04.379Z,5.13
2018-01-17T08:40:33.381Z,3.50
2018-01-17T08:43:00.995Z,4.73
2018-01-17T08:45:28.480Z,4.07
2018-01-17T08:47:55.964Z,4.53
2018-01-17T08:50:26.306Z,4.55
2018-01-17T08:52:54.144Z,4.13
2018-01-17T08:55:23.105Z,4.50
2018-01-17T08:57:50.939Z,3.40
2018-01-17T09:00:19.654Z,3.85
2018-01-17T09:02:48.559Z,4.23
2018-01-17T09:05:19.881Z,4.00
2018-01-17T09:07:47.852Z,4.20
2018-01-17T09:10:19.271Z,3.80
2018-01-17T09:12:49.099Z,5.15
2018-01-17T09:15:18.742Z,5.45
2018-01-17T09:17:47.652Z,4.33
2018-01-17T09:20:16.360Z,4.20
2018-01-17T09:22:44.354Z,3.97
2018-01-17T09:25:12.288Z,4.10
2018-01-17T09:27:39.962Z,4.50
2018-01-17T09:30:07.934Z,4.30
2018-01-17T09:32:35.910Z,4.95
2018-01-17T09:35:04.997Z,4.27
2018-01-17T09:37:37.972Z,4.30
2018-01-17T09:40:05.872Z,5.25
2018-01-17T09:42:39.653Z,4.60
2018-01-17T09:45:08.871Z,3.95
2018-01-17T09:47:38.536Z,4.40
2018-01-17T09:50:08.815Z,5.20
2018-01-17T09:52:36.469Z,5.77
2018-01-17T09:55:04.183Z,5.77
2018-01-17T09:57:31.705Z,5.13
2018-01-17T09:59:59.395Z,6.15
2018-01-17T10:02:26.975Z,5.60
2018-01-17T10:05:00.115Z,5.70
2018-01-17T10:07:30.585Z,5.30
2018-01-17T10:10:01.440Z,6.30
2018-01-17T10:12:29.186Z,5.50
2018-01-17T10:14:56.871Z,5.80
2018-01-17T10:17:28.011Z,5.30
2018-01-17T10:19:55.878Z,5.60
2018-01-17T10:22:23.673Z,6.05
2018-01-17T10:24:52.352Z,5.10
2018-01-17T10:27:20.118Z,5.00
2018-01-17T10:29:47.795Z,5.70
2018-01-17T10:35:11.593Z,5.50
2018-01-17T10:40:32.264Z,5.15
2018-01-17T10:43:00.988Z,4.20
2018-01-17T10:48:21.444Z,4.30
2018-01-17T10:50:49.136Z,4.70
2018-01-17T10:53:16.815Z,4.50
2018-01-17T10:55:44.328Z,4.03
2018-01-17T10:58:11.991Z,3.90
2018-01-17T11:00:39.814Z,3.80
2018-01-17T11:03:08.221Z,3.93
2018-01-17T11:05:35.865Z,3.87
2018-01-17T11:08:12.134Z,3.90
2018-01-17T11:10:41.046Z,3.67
2018-01-17T11:13:09.723Z,3.70
2018-01-17T11:15:38.123Z,2.87
2018-01-17T11:18:07.073Z,4.17
2018-01-17T11:20:36.047Z,3.30
2018-01-17T11:23:03.587Z,3.30
2018-01-17T11:25:34.889Z,3.45
2018-01-17T11:28:03.107Z,3.45
2018-01-17T11:33:26.915Z,3.20
2018-01-17T11:35:55.577Z,3.00
2018-01-17T11:38:23.189Z,2.50
2018-01-17T11:40:53.615Z,2.00
2018-01-17T11:43:24.291Z,3.07
2018-01-17T11:45:53.482Z,2.25
2018-01-17T11:48:24.735Z,2.20
2018-01-17T11:50:55.412Z,3.03
2018-01-17T11:53:23.123Z,2.47
2018-01-17T11:55:53.349Z,2.00
2018-01-17T11:58:21.357Z,2.40
2018-01-17T12:00:50.190Z,1.93
2018-01-17T12:03:26.718Z,2.30
2018-01-17T12:05:57.883Z,1.77
2018-01-17T12:08:26.554Z,2.43
2018-01-17T12:10:56.467Z,1.93
2018-01-17T12:13:26.076Z,1.30
2018-01-17T12:15:53.906Z,2.50
2018-01-17T12:18:23.524Z,1.40
2018-01-17T12:20:52.690Z,1.80
2018-01-17T12:23:24.008Z,1.77
2018-01-17T12:25:51.764Z,2.45
2018-01-17T12:28:21.701Z,1.40
2018-01-17T12:33:32.165Z,1.47
2018-01-17T12:36:02.935Z,1.87
2018-01-17T12:38:31.775Z,1.53
2018-01-17T12:40:59.894Z,1.80
2018-01-17T12:43:27.561Z,1.50
2018-01-17T12:45:55.183Z,1.40
2018-01-17T12:48:23.992Z,1.90
2018-01-17T12:50:51.565Z,1.83
2018-01-17T12:53:19.965Z,1.93
2018-01-17T12:55:49.889Z,1.73
2018-01-17T12:58:19.798Z,1.43
2018-01-17T13:00:49.533Z,1.70
2018-01-17T13:03:17.866Z,1.57
2018-01-17T13:05:46.793Z,2.07
2018-01-17T13:08:16.855Z,3.17
2018-01-17T13:10:44.922Z,1.60
2018-01-17T13:13:15.845Z,1.23
2018-01-17T13:15:44.128Z,1.73
2018-01-17T13:18:14.352Z,1.80
2018-01-17T13:20:42.169Z,1.83
2018-01-17T13:23:09.970Z,1.60
2018-01-17T13:25:38.834Z,1.77
2018-01-17T13:28:09.200Z,1.65
2018-01-17T13:30:37.330Z,1.60
2018-01-17T13:33:05.048Z,2.10
2018-01-17T13:35:33.728Z,1.70
2018-01-17T13:38:06.197Z,2.53
2018-01-17T13:40:33.972Z,1.53
2018-01-17T13:43:04.999Z,1.75
2018-01-17T13:45:36.885Z,2.07
2018-01-17T13:48:04.935Z,2.10
2018-01-17T13:50:35.655Z,1.10
2018-01-17T13:53:09.177Z,1.27
2018-01-17T13:55:37.107Z,1.90
2018-01-17T13:58:05.566Z,1.35
2018-01-17T14:00:33.454Z,1.75
2018-01-17T14:03:06.182Z,1.60
2018-01-17T14:05:35.683Z,1.37
2018-01-17T14:08:03.587Z,1.30
2018-01-17T14:10:39.437Z,2.20
2018-01-17T14:13:07.090Z,1.40
2018-01-17T14:15:37.846Z,1.50
2018-01-17T14:18:09.453Z,1.70
2018-01-17T14:20:38.299Z,1.57
2018-01-17T14:23:13.365Z,2.50
2018-01-17T14:25:43.961Z,2.50
2018-01-17T14:28:15.867Z,1.90
2018-01-17T14:30:44.041Z,2.07
2018-01-17T14:33:13.391Z,2.30
2018-01-17T14:35:49.614Z,1.30
2018-01-17T14:38:17.627Z,2.25
2018-01-17T14:43:19.006Z,1.90
2018-01-17T14:45:47.258Z,3.40
2018-01-17T14:48:14.775Z,1.75
2018-01-17T14:50:42.412Z,2.00
2018-01-17T14:53:09.863Z,1.53
2018-01-17T14:55:37.301Z,1.65
2018-01-17T14:58:04.965Z,1.67
2018-01-17T15:00:32.489Z,1.83
2018-01-17T15:03:00.285Z,1.60
2018-01-17T15:05:28.544Z,1.90
2018-01-17T15:07:56.559Z,1.70
2018-01-17T15:10:24.295Z,1.77
2018-01-17T15:12:51.859Z,1.70
2018-01-17T15:15:20.005Z,2.07
2018-01-17T15:17:47.608Z,1.70
2018-01-17T15:20:15.201Z,1.80
2018-01-17T15:22:44.459Z,2.30
2018-01-17T15:25:12.026Z,2.00
2018-01-17T15:27:39.676Z,1.67
2018-01-17T15:30:07.254Z,1.80
2018-01-17T15:32:34.922Z,1.73
2018-01-17T15:35:02.335Z,2.00
2018-01-17T15:37:29.699Z,2.00
2018-01-17T15:39:57.301Z,2.43
2018-01-17T15:42:24.717Z,2.27
2018-01-17T15:44:52.298Z,2.15
2018-01-17T15:47:19.723Z,2.40
2018-01-17T15:49:47.266Z,2.10
2018-01-17T15:52:14.966Z,2.30
2018-01-17T15:54:42.658Z,2.15
2018-01-17T15:57:10.506Z,2.67
2018-01-17T15:59:37.969Z,2.00
2018-01-17T16:02:05.513Z,2.67
2018-01-17T16:04:32.952Z,3.20
2018-01-17T16:07:00.390Z,2.40
2018-01-17T16:09:28.192Z,2.30
2018-01-17T16:11:55.653Z,2.15
2018-01-17T16:14:23.322Z,2.43
2018-01-17T16:16:50.981Z,2.20
2018-01-17T16:19:18.756Z,2.50
2018-01-17T16:21:47.457Z,2.43
2018-01-17T16:24:14.866Z,1.37
2018-01-17T16:26:42.495Z,2.20
2018-01-17T16:29:10.227Z,2.40
2018-01-17T16:31:37.688Z,2.37
2018-01-17T16:34:05.087Z,2.13
2018-01-17T16:36:32.667Z,1.85
2018-01-17T16:55:55.132Z,1.77
2018-01-17T16:58:22.789Z,2.40
2018-01-17T17:00:50.360Z,2.23
2018-01-17T17:03:17.885Z,2.00
2018-01-17T17:05:46.744Z,1.93
2018-01-17T17:08:14.172Z,2.10
2018-01-17T17:10:41.613Z,2.00
2018-01-17T17:13:08.999Z,1.90
2018-01-17T17:15:36.415Z,2.47
2018-01-17T17:18:03.867Z,1.70
2018-01-17T17:20:32.397Z,1.60
2018-01-17T17:22:59.986Z,2.67
2018-01-17T17:25:27.374Z,2.00
2018-01-17T17:27:54.835Z,2.30
2018-01-17T17:30:29.595Z,1.95
2018-01-17T17:32:57.106Z,1.93
2018-01-17T17:35:24.473Z,1.83
2018-01-17T17:37:52.135Z,1.80
2018-01-17T17:40:19.599Z,1.45
2018-01-17T17:42:47.031Z,2.00
2018-01-17T17:45:14.470Z,1.70
2018-01-17T17:47:41.890Z,1.30
2018-01-17T17:50:09.252Z,2.23
2018-01-17T17:52:36.642Z,2.00
2018-01-17T17:55:04.048Z,1.47
2018-01-17T17:57:31.428Z,1.70
2018-01-17T18:00:06.540Z,1.60
2018-01-17T18:02:33.954Z,1.50
2018-01-17T18:05:01.442Z,1.45
2018-01-17T18:07:28.802Z,2.00
2018-01-17T18:09:56.152Z,1.85
2018-01-17T18:12:23.592Z,1.35
2018-01-17T18:20:06.466Z,1.30
2018-01-17T18:22:33.874Z,1.70
2018-01-17T18:25:01.255Z,2.15
2018-01-17T18:27:28.658Z,2.20
2018-01-17T18:30:03.811Z,1.65
2018-01-17T18:32:31.166Z,0.90
2018-01-17T18:34:58.575Z,3.03
2018-01-17T18:37:26.063Z,1.40
2018-01-17T18:39:53.459Z,1.35
2018-01-17T18:42:20.952Z,1.70
2018-01-17T18:44:48.354Z,1.50
2018-01-17T18:47:15.702Z,1.40
2018-01-17T18:49:43.153Z,1.33
2018-01-17T18:52:10.582Z,1.35
2018-01-17T18:54:37.999Z,1.43
2018-01-17T18:57:05.358Z,1.30
2018-01-17T18:59:32.795Z,1.00
2018-01-17T19:02:00.222Z,1.00
2018-01-17T19:04:27.771Z,1.10
2018-01-17T19:06:55.226Z,1.20
2018-01-17T19:09:22.606Z,1.10
2018-01-17T19:11:50.008Z,1.40
2018-01-17T19:14:17.409Z,1.23
2018-01-17T19:16:44.897Z,1.10
2018-01-17T19:19:12.271Z,0.93
2018-01-17T19:21:39.693Z,1.10
2018-01-17T19:24:07.112Z,1.30
2018-01-17T19:26:34.506Z,1.35
2018-01-17T19:29:01.926Z,1.50
2018-01-17T19:31:29.326Z,1.20
2018-01-17T19:33:56.678Z,1.00
2018-01-17T19:36:24.185Z,1.00
2018-01-17T19:38:51.540Z,1.03
2018-01-17T19:41:18.922Z,1.10
2018-01-17T19:43:46.324Z,0.70
2018-01-17T19:46:13.815Z,1.10
2018-01-17T19:48:41.166Z,0.90
2018-01-17T19:51:08.566Z,1.00
2018-01-17T19:53:35.950Z,0.83
2018-01-17T19:56:03.359Z,1.10
2018-01-17T19:58:30.794Z,0.77
2018-01-17T20:00:58.260Z,1.03
2018-01-17T20:03:25.682Z,0.90
2018-01-17T20:05:53.043Z,0.97
2018-01-17T20:08:20.458Z,0.80
2018-01-17T20:10:47.860Z,0.57
2018-01-17T20:13:15.243Z,1.35
2018-01-17T20:15:42.579Z,0.70
2018-01-17T20:18:09.931Z,0.70
2018-01-17T20:20:37.389Z,0.83
2018-01-17T20:23:04.824Z,0.97
2018-01-17T20:25:32.198Z,0.70
2018-01-17T20:27:59.604Z,0.90
2018-01-17T20:30:27.030Z,0.70
2018-01-17T20:32:54.378Z,0.90
2018-01-17T20:35:21.735Z,0.70
2018-01-17T20:37:49.148Z,0.75
2018-01-17T20:40:16.566Z,1.10
2018-01-17T20:42:43.918Z,0.80
2018-01-17T20:45:11.273Z,0.70
2018-01-17T20:47:38.662Z,0.60
2018-01-17T20:50:13.002Z,1.00
2018-01-17T20:52:40.438Z,1.10
2018-01-17T20:55:07.794Z,1.07
2018-01-17T20:57:35.243Z,0.60
2018-01-17T21:00:02.650Z,0.83
2018-01-17T21:02:30.007Z,1.23
2018-01-17T21:04:57.465Z,0.77
2018-01-17T21:07:24.908Z,1.03
2018-01-17T21:09:52.350Z,0.63
2018-01-17T21:12:19.681Z,0.97
2018-01-17T21:14:47.085Z,0.83
2018-01-17T21:17:14.438Z,0.87
2018-01-17T21:19:49.512Z,0.73
2018-01-17T21:22:17.033Z,0.93
2018-01-17T21:24:44.413Z,1.00
2018-01-17T21:27:11.766Z,0.67
2018-01-17T21:29:39.218Z,0.60
2018-01-17T21:32:06.557Z,0.70
2018-01-17T21:34:33.959Z,0.73
2018-01-17T21:37:01.317Z,0.85
2018-01-17T21:39:28.775Z,0.70
2018-01-17T21:41:56.136Z,0.50
2018-01-17T21:44:23.526Z,0.50
2018-01-17T21:46:50.886Z,1.00
2018-01-17T21:49:25.492Z,0.70
2018-01-17T21:51:52.913Z,0.50
2018-01-17T21:54:20.434Z,0.77
2018-01-17T21:56:47.873Z,0.60
2018-01-17T21:59:15.402Z,0.53
2018-01-17T22:01:42.809Z,0.60
2018-01-17T22:04:10.222Z,0.57
2018-01-17T22:06:37.689Z,0.50
2018-01-17T22:09:05.284Z,0.70
2018-01-17T22:11:32.648Z,0.47
2018-01-17T22:14:00.110Z,0.85
2018-01-17T22:16:27.525Z,0.60
2018-01-17T22:18:55.151Z,0.60
2018-01-17T22:21:22.543Z,0.60
2018-01-17T22:23:49.915Z,0.70
2018-01-17T22:26:17.315Z,0.60
2018-01-17T22:28:44.741Z,0.60
2018-01-17T22:31:12.119Z,0.50
2018-01-17T22:33:39.495Z,0.60
2018-01-17T22:36:06.966Z,0.75
2018-01-17T22:38:34.706Z,0.80
2018-01-17T22:41:02.110Z,0.60
2018-01-17T22:43:29.518Z,0.50
2018-01-17T22:45:57.003Z,0.50
2018-01-17T22:48:24.496Z,0.63
2018-01-17T22:50:51.922Z,0.57
2018-01-17T22:53:19.330Z,0.60
2018-01-17T22:55:46.738Z,0.60
2018-01-17T22:58:14.182Z,0.50
2018-01-17T23:00:41.667Z,0.67
2018-01-17T23:03:09.092Z,0.55
2018-01-17T23:05:38.165Z,0.50
2018-01-17T23:08:05.886Z,0.60
2018-01-17T23:10:33.263Z,0.70
2018-01-17T23:13:00.654Z,0.50
2018-01-17T23:15:28.074Z,0.50
2018-01-17T23:17:55.509Z,0.50
2018-01-17T23:20:22.878Z,0.60
2018-01-17T23:22:50.364Z,0.50
2018-01-17T23:25:17.754Z,0.50
2018-01-17T23:27:45.108Z,0.67
2018-01-17T23:30:12.512Z,0.50
2018-01-17T23:32:39.864Z,0.50
2018-01-17T23:35:07.283Z,0.83
2018-01-17T23:37:34.648Z,0.70
2018-01-17T23:40:02.043Z,1.00
2018-01-17T23:42:29.427Z,0.80
2018-01-17T23:44:56.822Z,0.90
2018-01-17T23:47:24.209Z,0.90
2018-01-17T23:49:51.628Z,0.60
2018-01-17T23:52:19.132Z,0.85
2018-01-17T23:54:46.491Z,0.50
2018-01-17T23:57:13.892Z,0.70
2018-01-17T23:59:48.891Z,0.70
